Tulsa, OK (74171)

2:24 PM CST on December 04, 2016 (GMT -0600)
Forest Creek | | Change Station

Elev 741 ft 36.04 °N, 95.94 °W | Updated 13 seconds ago

Scattered Clouds
Scattered Clouds
54.5 °F
Feels Like 54.5 °F
N
0.0
Wind Variable Wind from ESE

Today
High -- | Low -- °F
--% Chance of Precip.
Yesterday
High -- | Low -- °F
Precip. -- in
Pressure 30.05 in
Visibility 10.0 miles
Clouds Scattered Clouds 2800 ft
Dew Point 43 °F
Humidity 66%
Rainfall 0.07 in
Snow Depth Not available.
7:19 AM 5:09 PM
Waxing Crescent, 25% visible
SPECI KRVS 042001Z VRB04KT 10SM SCT028 12/04 A3005 RMK AO2 T01170039
Pressure 30.05 in
Visibility 10.0 miles
Clouds Scattered Clouds 2800 ft
Dew Point 43 °F
Humidity 66%
Rainfall 0.07 in
Snow Depth Not available.
7:19 AM 5:09 PM
Waxing Crescent, 25% visible
SPECI KRVS 042001Z VRB04KT 10SM SCT028 12/04 A3005 RMK AO2 T01170039

10-Day Weather Forecast

Almanac

Astronomy

Dec. 04, 2016 Rise Set
Actual Time
Civil Twilight
Nautical Twilight
Astronomical Twilight
Moon
Length of Visible Light
Length of Day
Tomorrow will be .
, % of the Moon is Illuminated

Today's Extremes

State Highs State Lows

Community

WunderPhotos

Upload Photos

1,955,661 photos uploaded!

WunderBlog® & News

Nearby

Air Quality

  Air Quality AQ Index Pollutant
Not available.

Snow Depth

Station Depth Elevation

Earthquake Activity

City Distance Mag. Time & Date
Minimum magnitude displayed is 2.5.

Coastal Water Temperatures

Place Temperature

Stations

Nearby Weather Stations

Station Location Temp. Windchill Dew Point Humidity Wind Precip. Elev Updated Type
                   

Watches & Warnings

There are currently no watches in effect.